Time;durP1;ratioP1;P1;durP2;ratioP2;P2;SDS_P1;SDS_P2;PMS_P1;PMS_P2;Temp;Humidity;BMP_temperature;BMP_pressure;BME280_temperature;BME280_humidity;BME280_pressure;Samples;Min_cycle;Max_cycle;Signal;HPM_P1;HPM_P2
2023/08/19 12:26:38;;;;;;;4.75;4.20;;;;;;;;;;5033716;27;58368;-69
2023/08/19 12:29:03;;;;;;;3.90;3.60;;;;;;;;;;5022895;28;58014;-71
2023/08/19 12:31:28;;;;;;;4.53;4.07;;;;;;;;;;5019784;28;57347;-69
2023/08/19 12:33:53;;;;;;;4.50;4.10;;;;;;;;;;5019773;28;58042;-68
2023/08/19 12:36:19;;;;;;;4.22;3.85;;;;;;;;;;5018230;28;57362;-68
2023/08/19 12:38:45;;;;;;;4.57;4.18;;;;;;;;;;5019822;28;57886;-69
2023/08/19 12:41:10;;;;;;;4.32;3.92;;;;;;;;;;5023689;28;57166;-67
2023/08/19 12:43:35;;;;;;;4.78;3.75;;;;;;;;;;5022350;28;57479;-67
2023/08/19 12:46:00;;;;;;;4.43;4.03;;;;;;;;;;5023609;28;57753;-69
2023/08/19 12:48:25;;;;;;;3.77;3.47;;;;;;;;;;5025191;28;57946;-69
2023/08/19 12:50:50;;;;;;;5.38;3.70;;;;;;;;;;5029337;28;58285;-68
2023/08/19 12:53:16;;;;;;;4.82;4.43;;;;;;;;;;5023598;28;58115;-69
2023/08/19 12:55:41;;;;;;;5.40;3.37;;;;;;;;;;5023319;28;58507;-68
2023/08/19 12:58:06;;;;;;;7.37;3.53;;;;;;;;;;5023128;28;57236;-68
2023/08/19 13:00:31;;;;;;;4.10;3.67;;;;;;;;;;5022667;28;58342;-69
2023/08/19 13:02:57;;;;;;;6.40;3.97;;;;;;;;;;5024320;28;58449;-69
2023/08/19 13:05:22;;;;;;;4.43;3.83;;;;;;;;;;5025828;28;57148;-69
2023/08/19 13:07:48;;;;;;;6.47;3.63;;;;;;;;;;5040986;28;57704;-70
2023/08/19 13:10:14;;;;;;;6.35;3.60;;;;;;;;;;5040143;28;57219;-68
2023/08/19 13:12:39;;;;;;;9.75;4.05;;;;;;;;;;5043582;28;58131;-68
2023/08/19 13:15:05;;;;;;;6.03;4.53;;;;;;;;;;5044770;28;58568;-69
2023/08/19 13:17:30;;;;;;;8.02;3.30;;;;;;;;;;5051420;28;57508;-71
2023/08/19 13:19:55;;;;;;;8.30;4.70;;;;;;;;;;5040656;28;58052;-70
2023/08/19 13:22:21;;;;;;;6.38;3.88;;;;;;;;;;5037171;28;58160;-70
2023/08/19 13:24:47;;;;;;;12.15;6.65;;;;;;;;;;5043828;28;57102;-68
2023/08/19 13:27:12;;;;;;;7.18;4.75;;;;;;;;;;5045069;28;57362;-68
2023/08/19 13:29:37;;;;;;;8.40;4.23;;;;;;;;;;5056751;27;59540;-69
2023/08/19 13:32:03;;;;;;;12.23;3.93;;;;;;;;;;5043744;28;58059;-68
2023/08/19 13:34:28;;;;;;;5.10;3.78;;;;;;;;;;5038129;28;58069;-69
2023/08/19 13:36:53;;;;;;;6.85;3.70;;;;;;;;;;5032177;28;57189;-67
2023/08/19 13:39:19;;;;;;;8.63;4.33;;;;;;;;;;5028851;28;58124;-70
2023/08/19 13:41:44;;;;;;;5.97;4.03;;;;;;;;;;5029585;28;57606;-69
2023/08/19 13:44:09;;;;;;;3.67;3.35;;;;;;;;;;5030113;28;57965;-69
2023/08/19 13:46:34;;;;;;;16.73;4.60;;;;;;;;;;5030573;28;57436;-68
2023/08/19 13:48:59;;;;;;;6.70;4.43;;;;;;;;;;5023614;28;57370;-68
2023/08/19 13:51:24;;;;;;;7.55;2.97;;;;;;;;;;5029752;28;58000;-69
2023/08/19 13:53:49;;;;;;;5.03;4.00;;;;;;;;;;5024704;28;57711;-70
2023/08/19 13:56:14;;;;;;;8.80;5.45;;;;;;;;;;5026720;28;58276;-69
2023/08/19 13:58:40;;;;;;;8.70;3.58;;;;;;;;;;5030244;28;58192;-68
2023/08/19 14:01:07;;;;;;;6.07;4.38;;;;;;;;;;5035549;28;59629;-70
2023/08/19 14:03:32;;;;;;;11.57;4.35;;;;;;;;;;5030104;28;58020;-68
2023/08/19 14:05:57;;;;;;;7.10;3.78;;;;;;;;;;5030245;28;57866;-69
2023/08/19 14:08:22;;;;;;;6.30;4.03;;;;;;;;;;5028734;28;57880;-69
2023/08/19 14:10:51;;;;;;;5.43;3.83;;;;;;;;;;5027590;28;58657;-70
2023/08/19 14:13:17;;;;;;;9.30;3.60;;;;;;;;;;5026424;28;57671;-70
2023/08/19 14:15:43;;;;;;;11.20;4.53;;;;;;;;;;5030850;28;57682;-70
2023/08/19 14:18:08;;;;;;;6.13;3.30;;;;;;;;;;5030852;28;57897;-70
2023/08/19 14:20:33;;;;;;;7.20;4.20;;;;;;;;;;5032560;28;58120;-70
2023/08/19 14:22:58;;;;;;;4.50;3.20;;;;;;;;;;5030699;28;57821;-70
2023/08/19 14:25:24;;;;;;;6.60;3.07;;;;;;;;;;5028638;28;57506;-70
2023/08/19 14:27:49;;;;;;;5.22;3.33;;;;;;;;;;5026340;28;58453;-70
2023/08/19 14:30:14;;;;;;;4.47;3.13;;;;;;;;;;5024939;28;58235;-71
2023/08/19 14:32:39;;;;;;;9.80;4.30;;;;;;;;;;5026307;28;57451;-69
2023/08/19 14:35:04;;;;;;;6.43;4.55;;;;;;;;;;5026507;28;58233;-70
2023/08/19 14:37:30;;;;;;;6.80;3.55;;;;;;;;;;5026689;28;57792;-70
2023/08/19 14:39:55;;;;;;;11.70;3.92;;;;;;;;;;5027821;28;58131;-70
2023/08/19 14:42:20;;;;;;;9.50;3.63;;;;;;;;;;5027182;28;58224;-70
2023/08/19 14:44:45;;;;;;;5.78;3.08;;;;;;;;;;5029680;28;58050;-70
2023/08/19 14:47:10;;;;;;;15.18;4.20;;;;;;;;;;5027661;28;57545;-70
2023/08/19 14:49:35;;;;;;;5.70;3.93;;;;;;;;;;5025514;28;57664;-71
2023/08/19 14:52:01;;;;;;;9.90;4.00;;;;;;;;;;5031475;28;57846;-69
2023/08/19 14:54:26;;;;;;;6.68;3.60;;;;;;;;;;5026122;28;58559;-70
2023/08/19 14:56:51;;;;;;;15.40;4.33;;;;;;;;;;5029686;28;57708;-71
2023/08/19 14:59:16;;;;;;;9.20;3.15;;;;;;;;;;5029679;28;57795;-71
2023/08/19 15:01:41;;;;;;;3.73;3.10;;;;;;;;;;5031521;28;58252;-73
2023/08/19 15:04:07;;;;;;;7.40;4.00;;;;;;;;;;5029991;28;57978;-74
2023/08/19 15:06:32;;;;;;;11.90;4.47;;;;;;;;;;5031959;28;57794;-72
2023/08/19 15:08:57;;;;;;;10.37;3.47;;;;;;;;;;5038377;28;58041;-71
2023/08/19 15:11:22;;;;;;;9.68;3.85;;;;;;;;;;5036051;28;57707;-70
2023/08/19 15:13:47;;;;;;;7.73;2.87;;;;;;;;;;5023118;28;58831;-68
2023/08/19 15:16:13;;;;;;;16.02;3.67;;;;;;;;;;5029174;28;57833;-68
2023/08/19 15:18:38;;;;;;;11.75;4.03;;;;;;;;;;5020721;28;58422;-69
2023/08/19 15:21:03;;;;;;;10.60;3.95;;;;;;;;;;5031495;28;58030;-69
2023/08/19 15:23:28;;;;;;;9.52;3.30;;;;;;;;;;5031945;28;57089;-70
2023/08/19 15:25:53;;;;;;;4.60;2.38;;;;;;;;;;5028702;28;57826;-70
2023/08/19 15:28:18;;;;;;;7.13;4.27;;;;;;;;;;5029318;28;57967;-68
2023/08/19 15:30:43;;;;;;;3.87;2.90;;;;;;;;;;5029383;28;57835;-69
2023/08/19 15:33:09;;;;;;;5.93;3.13;;;;;;;;;;5030413;28;58050;-70
2023/08/19 15:35:34;;;;;;;6.93;2.53;;;;;;;;;;5026815;28;58261;-68
2023/08/19 15:38:02;;;;;;;9.57;3.85;;;;;;;;;;5031402;28;57778;-68
2023/08/19 15:40:28;;;;;;;8.60;3.33;;;;;;;;;;5025748;28;57735;-68
2023/08/19 15:42:53;;;;;;;6.27;3.40;;;;;;;;;;5030841;28;57925;-70
2023/08/19 15:45:18;;;;;;;13.43;3.13;;;;;;;;;;5028957;28;58766;-70
2023/08/19 15:47:43;;;;;;;9.00;3.50;;;;;;;;;;5028550;28;57734;-69
2023/08/19 15:50:08;;;;;;;4.82;3.13;;;;;;;;;;5028061;28;57038;-68
2023/08/19 15:52:34;;;;;;;4.83;3.07;;;;;;;;;;5030252;28;57679;-68
2023/08/19 15:54:59;;;;;;;10.90;5.00;;;;;;;;;;5031765;28;57733;-69
2023/08/19 15:57:24;;;;;;;5.90;3.13;;;;;;;;;;5031206;28;57957;-68
2023/08/19 15:59:49;;;;;;;6.73;3.80;;;;;;;;;;5030849;28;58035;-68
2023/08/19 16:02:14;;;;;;;6.40;3.10;;;;;;;;;;5032155;28;57700;-68
2023/08/19 16:04:39;;;;;;;4.13;3.00;;;;;;;;;;5026305;28;57953;-68
2023/08/19 16:07:05;;;;;;;4.45;3.13;;;;;;;;;;5027035;28;57553;-68
2023/08/19 16:09:30;;;;;;;10.87;3.20;;;;;;;;;;5031847;28;57810;-68
2023/08/19 16:11:55;;;;;;;5.07;3.70;;;;;;;;;;5030003;28;58281;-67
2023/08/19 16:14:20;;;;;;;8.17;3.67;;;;;;;;;;5030607;28;58183;-67
2023/08/19 16:16:46;;;;;;;7.30;2.95;;;;;;;;;;5027941;28;57818;-68
2023/08/19 16:19:11;;;;;;;3.28;2.92;;;;;;;;;;5031150;28;58765;-69
2023/08/19 16:21:36;;;;;;;9.73;3.30;;;;;;;;;;5031623;28;57597;-68
2023/08/19 16:24:02;;;;;;;10.30;3.40;;;;;;;;;;5019891;28;58245;-66
2023/08/19 16:26:27;;;;;;;14.65;3.90;;;;;;;;;;5031325;28;58115;-67
2023/08/19 16:28:52;;;;;;;12.02;4.10;;;;;;;;;;5030927;28;57891;-67
2023/08/19 16:31:18;;;;;;;11.65;3.28;;;;;;;;;;5030277;28;57521;-67
2023/08/19 16:33:43;;;;;;;6.40;3.47;;;;;;;;;;5039485;28;58048;-67
2023/08/19 16:36:08;;;;;;;5.22;3.50;;;;;;;;;;5035283;28;58152;-67
2023/08/19 16:38:33;;;;;;;3.00;2.70;;;;;;;;;;5033179;28;58052;-67
2023/08/19 16:40:58;;;;;;;4.97;3.00;;;;;;;;;;5032135;28;57916;-67
2023/08/19 16:43:23;;;;;;;31.93;4.27;;;;;;;;;;5038228;28;58334;-67
2023/08/19 16:45:58;;;;;;;23.70;5.70;;;;;;;;;;5023685;28;58049;-67
2023/08/19 16:48:24;;;;;;;25.98;7.38;;;;;;;;;;5030728;28;57374;-67
2023/08/19 16:50:49;;;;;;;22.50;6.97;;;;;;;;;;5029669;28;57640;-67
2023/08/19 16:53:14;;;;;;;28.40;6.77;;;;;;;;;;5029910;28;57710;-67
2023/08/19 16:55:39;;;;;;;19.95;7.40;;;;;;;;;;5038955;28;58297;-67
2023/08/19 16:58:04;;;;;;;25.10;6.15;;;;;;;;;;5029671;28;57450;-67
2023/08/19 17:00:29;;;;;;;27.50;8.10;;;;;;;;;;5030406;28;57617;-67
2023/08/19 17:02:55;;;;;;;20.65;5.68;;;;;;;;;;5030363;28;57941;-67
2023/08/19 17:05:20;;;;;;;21.77;6.55;;;;;;;;;;5030530;28;57926;-67
2023/08/19 17:07:45;;;;;;;21.30;6.95;;;;;;;;;;5030117;28;58197;-67
2023/08/19 17:10:10;;;;;;;21.30;6.05;;;;;;;;;;5029859;28;57811;-67
2023/08/19 17:12:35;;;;;;;16.77;6.20;;;;;;;;;;5032281;28;58323;-67
2023/08/19 17:15:00;;;;;;;21.20;8.20;;;;;;;;;;5033681;28;57834;-67
2023/08/19 17:17:25;;;;;;;18.33;6.83;;;;;;;;;;5034096;28;58042;-67
2023/08/19 17:19:51;;;;;;;16.90;5.28;;;;;;;;;;5034129;28;57766;-67
2023/08/19 17:22:16;;;;;;;14.80;5.35;;;;;;;;;;5028039;28;58275;-68
2023/08/19 17:24:41;;;;;;;19.10;5.50;;;;;;;;;;5033183;28;58707;-68
2023/08/19 17:27:06;;;;;;;22.60;6.53;;;;;;;;;;5030538;28;58119;-68
2023/08/19 17:29:31;;;;;;;18.05;6.88;;;;;;;;;;5029788;28;58428;-68
2023/08/19 17:31:56;;;;;;;11.93;4.82;;;;;;;;;;5033998;28;57541;-68
2023/08/19 17:34:22;;;;;;;17.70;5.82;;;;;;;;;;5029574;28;58496;-68
2023/08/19 17:36:47;;;;;;;20.20;5.53;;;;;;;;;;5028409;28;57860;-69
2023/08/19 17:39:14;;;;;;;12.10;4.85;;;;;;;;;;5028614;28;57996;-68
2023/08/19 17:41:39;;;;;;;9.15;4.80;;;;;;;;;;5033843;28;58186;-68
2023/08/19 17:44:04;;;;;;;12.47;5.57;;;;;;;;;;5032498;28;58200;-68
2023/08/19 17:46:29;;;;;;;18.77;5.43;;;;;;;;;;5033748;28;58151;-68
2023/08/19 17:48:55;;;;;;;13.63;4.97;;;;;;;;;;5031821;28;57912;-69
2023/08/19 17:51:20;;;;;;;9.93;4.40;;;;;;;;;;5033067;28;58743;-68
2023/08/19 17:53:46;;;;;;;18.52;5.80;;;;;;;;;;5033460;28;57913;-69
2023/08/19 17:56:11;;;;;;;14.00;4.85;;;;;;;;;;5031928;28;58902;-68
2023/08/19 17:58:36;;;;;;;14.87;5.17;;;;;;;;;;5032802;28;57855;-68
2023/08/19 18:01:03;;;;;;;12.77;4.57;;;;;;;;;;5032969;28;57901;-68
2023/08/19 18:03:28;;;;;;;12.38;4.18;;;;;;;;;;5027279;28;58030;-68
2023/08/19 18:05:54;;;;;;;10.73;4.67;;;;;;;;;;5029005;28;57906;-68
2023/08/19 18:08:19;;;;;;;19.80;6.03;;;;;;;;;;5029712;28;57707;-68
2023/08/19 18:10:44;;;;;;;10.80;4.73;;;;;;;;;;5032274;28;57937;-68
2023/08/19 18:13:09;;;;;;;11.90;5.30;;;;;;;;;;5026260;28;58293;-70
2023/08/19 18:15:35;;;;;;;11.63;5.20;;;;;;;;;;5039169;28;59725;-68
2023/08/19 18:18:00;;;;;;;9.23;3.45;;;;;;;;;;5030390;28;58264;-69
2023/08/19 18:20:25;;;;;;;12.97;5.07;;;;;;;;;;5033502;28;57881;-68
2023/08/19 18:22:50;;;;;;;7.80;4.03;;;;;;;;;;5032653;28;57617;-69
2023/08/19 18:25:16;;;;;;;12.53;4.57;;;;;;;;;;5035282;28;57817;-69
2023/08/19 18:27:46;;;;;;;8.80;5.10;;;;;;;;;;5032458;28;57762;-70
2023/08/19 18:30:11;;;;;;;9.40;4.07;;;;;;;;;;5031722;28;58075;-70
2023/08/19 18:32:36;;;;;;;10.20;4.57;;;;;;;;;;5029730;28;57842;-68
2023/08/19 18:35:02;;;;;;;12.02;4.15;;;;;;;;;;5023865;28;58661;-70
2023/08/19 18:37:27;;;;;;;10.07;4.50;;;;;;;;;;5028508;28;58163;-69
2023/08/19 18:39:52;;;;;;;9.50;4.70;;;;;;;;;;5027658;28;57964;-69
2023/08/19 18:42:17;;;;;;;12.97;4.43;;;;;;;;;;5025324;28;58404;-72
2023/08/19 18:44:42;;;;;;;7.47;3.80;;;;;;;;;;5030585;28;57808;-68
2023/08/19 18:47:08;;;;;;;11.43;4.78;;;;;;;;;;5026874;28;57968;-68
2023/08/19 18:49:33;;;;;;;10.98;5.25;;;;;;;;;;5033977;28;57904;-69
2023/08/19 18:51:58;;;;;;;10.93;2.97;;;;;;;;;;5027625;28;58245;-70
2023/08/19 18:54:23;;;;;;;11.77;4.93;;;;;;;;;;5026787;28;58216;-71
2023/08/19 18:56:48;;;;;;;9.20;3.97;;;;;;;;;;5032856;28;57923;-72
2023/08/19 18:59:14;;;;;;;11.43;4.43;;;;;;;;;;5027572;28;57731;-71
2023/08/19 19:01:39;;;;;;;8.10;3.67;;;;;;;;;;5027460;28;57890;-73
2023/08/19 19:04:05;;;;;;;8.35;3.42;;;;;;;;;;5021767;28;58031;-72
2023/08/19 19:06:30;;;;;;;9.23;3.63;;;;;;;;;;5029213;28;58164;-73
2023/08/19 19:08:55;;;;;;;11.30;3.63;;;;;;;;;;5034005;28;58329;-76
2023/08/19 19:11:20;;;;;;;9.93;3.27;;;;;;;;;;5029462;28;57962;-71
2023/08/19 19:13:45;;;;;;;7.00;3.57;;;;;;;;;;5027542;28;58600;-72
2023/08/19 19:16:11;;;;;;;10.93;4.63;;;;;;;;;;5027545;28;58004;-73
2023/08/19 19:18:36;;;;;;;6.10;3.77;;;;;;;;;;5029270;28;58159;-74
2023/08/19 19:21:01;;;;;;;8.60;3.57;;;;;;;;;;5026835;28;58002;-73
2023/08/19 19:23:26;;;;;;;8.27;3.83;;;;;;;;;;5030266;28;58180;-74
2023/08/19 19:25:51;;;;;;;4.93;3.10;;;;;;;;;;5035903;28;58483;-75
2023/08/19 19:28:16;;;;;;;8.33;3.83;;;;;;;;;;5043787;28;58665;-75
2023/08/19 19:30:42;;;;;;;7.57;2.80;;;;;;;;;;5030426;28;57945;-74
2023/08/19 19:33:07;;;;;;;10.43;3.90;;;;;;;;;;5024717;28;58403;-71
2023/08/19 19:35:32;;;;;;;8.03;3.67;;;;;;;;;;5031049;28;57390;-71
2023/08/19 19:37:57;;;;;;;9.77;4.03;;;;;;;;;;5030284;28;58692;-72
2023/08/19 19:40:22;;;;;;;6.33;3.47;;;;;;;;;;5029795;28;58535;-72
2023/08/19 19:42:48;;;;;;;9.33;3.30;;;;;;;;;;5031509;28;57826;-72
2023/08/19 19:45:13;;;;;;;6.03;2.78;;;;;;;;;;5031628;28;57562;-71
2023/08/19 19:47:39;;;;;;;7.00;2.93;;;;;;;;;;5030649;28;57572;-71
2023/08/19 19:50:05;;;;;;;7.97;3.00;;;;;;;;;;5029675;28;57963;-72
2023/08/19 19:52:31;;;;;;;8.73;3.28;;;;;;;;;;5028082;28;57888;-72
2023/08/19 19:54:56;;;;;;;4.80;2.63;;;;;;;;;;5020561;28;57762;-72
2023/08/19 19:57:21;;;;;;;7.63;2.73;;;;;;;;;;5028696;28;58706;-72
2023/08/19 19:59:46;;;;;;;4.10;2.93;;;;;;;;;;5030892;28;58144;-72
2023/08/19 20:02:11;;;;;;;5.33;3.13;;;;;;;;;;5030192;28;58094;-72
2023/08/19 20:04:37;;;;;;;2.72;2.10;;;;;;;;;;5031669;28;57721;-72
2023/08/19 20:07:02;;;;;;;3.40;2.65;;;;;;;;;;5028791;28;57938;-72
2023/08/19 20:09:28;;;;;;;6.23;3.43;;;;;;;;;;5025693;28;58022;-72
2023/08/19 20:11:53;;;;;;;4.67;2.37;;;;;;;;;;5026632;28;57809;-73
2023/08/19 20:14:18;;;;;;;4.23;2.70;;;;;;;;;;5027122;28;60303;-72
2023/08/19 20:16:44;;;;;;;4.68;2.70;;;;;;;;;;5027831;28;58026;-72
2023/08/19 20:19:13;;;;;;;4.10;2.53;;;;;;;;;;5028370;28;57774;-72
2023/08/19 20:21:38;;;;;;;5.97;2.53;;;;;;;;;;5030131;28;57719;-72
2023/08/19 20:24:04;;;;;;;7.28;2.33;;;;;;;;;;5030579;28;58701;-72
2023/08/19 20:26:29;;;;;;;4.35;2.75;;;;;;;;;;5030596;28;57766;-73
2023/08/19 20:28:54;;;;;;;5.17;2.67;;;;;;;;;;5028684;28;58145;-73
2023/08/19 20:31:19;;;;;;;3.58;2.42;;;;;;;;;;5029009;28;58011;-72
2023/08/19 20:33:44;;;;;;;8.32;4.13;;;;;;;;;;5023360;28;58378;-72
2023/08/19 20:36:09;;;;;;;3.92;2.40;;;;;;;;;;5025941;28;58074;-72
2023/08/19 20:38:34;;;;;;;6.28;3.05;;;;;;;;;;5028324;28;59565;-72
2023/08/19 20:41:00;;;;;;;8.67;2.37;;;;;;;;;;5024493;28;58360;-72
2023/08/19 20:43:25;;;;;;;4.33;2.13;;;;;;;;;;5026654;28;58027;-72
2023/08/19 20:45:53;;;;;;;6.20;2.87;;;;;;;;;;5027856;28;57993;-72
2023/08/19 20:48:21;;;;;;;5.60;3.05;;;;;;;;;;5027894;28;57794;-73
2023/08/19 20:50:46;;;;;;;3.50;2.20;;;;;;;;;;5032127;28;58130;-72
2023/08/19 20:53:12;;;;;;;3.57;2.67;;;;;;;;;;5029844;28;58731;-72
2023/08/19 20:55:37;;;;;;;16.92;3.90;;;;;;;;;;5029902;28;57845;-72
2023/08/19 20:58:03;;;;;;;5.78;2.20;;;;;;;;;;5044552;28;58388;-71
2023/08/19 21:00:28;;;;;;;4.40;2.67;;;;;;;;;;5028480;28;58017;-72
2023/08/19 21:02:53;;;;;;;4.05;1.77;;;;;;;;;;5029633;28;57586;-71
2023/08/19 21:05:18;;;;;;;3.03;2.27;;;;;;;;;;5027961;28;58663;-72
2023/08/19 21:07:43;;;;;;;2.17;1.55;;;;;;;;;;5032199;28;57836;-72
2023/08/19 21:10:10;;;;;;;2.75;2.53;;;;;;;;;;5030017;28;57846;-73
2023/08/19 21:12:35;;;;;;;5.97;3.30;;;;;;;;;;5030010;28;58191;-72
2023/08/19 21:15:01;;;;;;;3.37;2.73;;;;;;;;;;5032576;28;57863;-72
2023/08/19 21:17:26;;;;;;;2.28;1.60;;;;;;;;;;5030434;28;57739;-71
2023/08/19 21:19:51;;;;;;;4.05;2.67;;;;;;;;;;5032515;28;57950;-72
2023/08/19 21:22:16;;;;;;;3.80;2.60;;;;;;;;;;5029532;28;57259;-72
2023/08/19 21:24:41;;;;;;;5.03;2.33;;;;;;;;;;5028197;28;57665;-72
2023/08/19 21:27:07;;;;;;;3.13;1.87;;;;;;;;;;5032684;28;58078;-72
2023/08/19 21:29:32;;;;;;;2.72;2.00;;;;;;;;;;5029344;28;57969;-72
2023/08/19 21:31:57;;;;;;;2.50;2.30;;;;;;;;;;5023074;28;58356;-72
2023/08/19 21:34:22;;;;;;;2.60;1.77;;;;;;;;;;5030369;28;58036;-73
2023/08/19 21:36:48;;;;;;;6.23;1.97;;;;;;;;;;5030726;28;58378;-71
2023/08/19 21:39:13;;;;;;;2.47;2.03;;;;;;;;;;5027320;28;58482;-71
2023/08/19 21:41:38;;;;;;;2.20;2.00;;;;;;;;;;5034485;28;58132;-74
2023/08/19 21:44:03;;;;;;;1.87;1.63;;;;;;;;;;5028814;28;58841;-74
2023/08/19 21:46:29;;;;;;;3.20;1.93;;;;;;;;;;5030968;28;58079;-75
2023/08/19 21:48:54;;;;;;;3.10;1.67;;;;;;;;;;5028142;28;58072;-73
2023/08/19 21:51:22;;;;;;;4.10;2.67;;;;;;;;;;5027119;28;57814;-74
2023/08/19 21:53:47;;;;;;;2.85;1.42;;;;;;;;;;5035625;28;57924;-74
2023/08/19 21:56:12;;;;;;;1.48;1.38;;;;;;;;;;5031207;28;57664;-73
2023/08/19 21:58:37;;;;;;;2.30;1.60;;;;;;;;;;5029129;28;57884;-73
2023/08/19 22:01:03;;;;;;;3.90;2.13;;;;;;;;;;5032526;28;58069;-73
2023/08/19 22:03:28;;;;;;;1.97;1.63;;;;;;;;;;5029503;28;58331;-73
2023/08/19 22:05:53;;;;;;;2.53;2.03;;;;;;;;;;5029992;28;58102;-73
2023/08/19 22:08:18;;;;;;;3.40;2.40;;;;;;;;;;5032511;28;57684;-73
2023/08/19 22:10:44;;;;;;;3.13;2.13;;;;;;;;;;5044434;28;57790;-73
2023/08/19 22:13:09;;;;;;;2.75;1.75;;;;;;;;;;5037815;28;57770;-72
2023/08/19 22:15:34;;;;;;;2.50;1.73;;;;;;;;;;5028695;28;58244;-74
2023/08/19 22:18:00;;;;;;;2.90;1.90;;;;;;;;;;5030425;28;58925;-73
2023/08/19 22:20:25;;;;;;;2.47;1.77;;;;;;;;;;5030714;28;57970;-74
2023/08/19 22:22:50;;;;;;;2.38;1.48;;;;;;;;;;5028324;28;59591;-73
2023/08/19 22:25:15;;;;;;;3.70;2.13;;;;;;;;;;5026928;28;57892;-73
2023/08/19 22:27:41;;;;;;;1.93;1.40;;;;;;;;;;5028617;28;57833;-73
2023/08/19 22:30:07;;;;;;;2.43;1.30;;;;;;;;;;5028722;28;58442;-73
2023/08/19 22:32:32;;;;;;;2.95;1.35;;;;;;;;;;5027630;28;57995;-74
2023/08/19 22:34:57;;;;;;;2.75;1.27;;;;;;;;;;5024179;28;57756;-73
2023/08/19 22:37:22;;;;;;;3.78;1.67;;;;;;;;;;5024983;28;57561;-73
2023/08/19 22:39:47;;;;;;;3.22;1.70;;;;;;;;;;5028531;28;58185;-73
2023/08/19 22:42:13;;;;;;;5.30;1.77;;;;;;;;;;5030026;28;57839;-72
2023/08/19 22:44:38;;;;;;;4.63;2.57;;;;;;;;;;5035573;28;58201;-73
2023/08/19 22:47:03;;;;;;;1.63;1.30;;;;;;;;;;5026814;28;58146;-73
2023/08/19 22:49:28;;;;;;;1.70;1.10;;;;;;;;;;5030076;28;58427;-74
2023/08/19 22:51:56;;;;;;;2.10;1.30;;;;;;;;;;5026704;28;57751;-73
2023/08/19 22:54:21;;;;;;;2.78;1.77;;;;;;;;;;5027835;28;57916;-73
2023/08/19 22:56:46;;;;;;;1.70;1.30;;;;;;;;;;5028632;28;58050;-73
2023/08/19 22:59:11;;;;;;;2.47;1.53;;;;;;;;;;5028191;28;58155;-73
2023/08/19 23:01:37;;;;;;;2.60;1.47;;;;;;;;;;5021933;28;57889;-74
2023/08/19 23:04:02;;;;;;;2.13;1.60;;;;;;;;;;5028528;28;57913;-73
2023/08/19 23:06:27;;;;;;;1.30;1.20;;;;;;;;;;5028366;28;58259;-73
2023/08/19 23:08:52;;;;;;;1.83;1.40;;;;;;;;;;5023470;28;58596;-73
2023/08/19 23:11:17;;;;;;;1.25;0.88;;;;;;;;;;5025396;28;58023;-72
2023/08/19 23:13:42;;;;;;;5.30;2.13;;;;;;;;;;5025527;28;57790;-73
2023/08/19 23:16:07;;;;;;;2.05;0.80;;;;;;;;;;5023199;28;58074;-73
2023/08/19 23:18:33;;;;;;;3.40;1.47;;;;;;;;;;5024139;28;57732;-72
2023/08/19 23:20:58;;;;;;;3.17;1.20;;;;;;;;;;5024969;28;57891;-73
2023/08/19 23:23:23;;;;;;;1.10;1.00;;;;;;;;;;5023168;28;58729;-73
2023/08/19 23:25:48;;;;;;;3.10;1.95;;;;;;;;;;5029778;28;57865;-73
2023/08/19 23:28:13;;;;;;;2.42;1.25;;;;;;;;;;5026687;28;58110;-73
2023/08/19 23:30:38;;;;;;;3.47;1.23;;;;;;;;;;5029849;28;57887;-73
2023/08/19 23:33:04;;;;;;;1.65;1.55;;;;;;;;;;5031225;28;57743;-73
2023/08/19 23:35:29;;;;;;;1.27;1.00;;;;;;;;;;5030340;28;58531;-73
2023/08/19 23:37:54;;;;;;;2.28;1.27;;;;;;;;;;5030644;28;57802;-72
2023/08/19 23:40:19;;;;;;;1.83;1.40;;;;;;;;;;5027902;28;57921;-73
2023/08/19 23:42:44;;;;;;;1.45;1.35;;;;;;;;;;5028538;28;57970;-73
2023/08/19 23:45:10;;;;;;;2.53;1.25;;;;;;;;;;5030418;28;57952;-73
2023/08/19 23:47:35;;;;;;;1.38;1.23;;;;;;;;;;5031997;28;57791;-73
2023/08/19 23:50:00;;;;;;;1.60;1.50;;;;;;;;;;5031136;28;58112;-73
2023/08/19 23:52:30;;;;;;;1.07;0.97;;;;;;;;;;5037506;28;59134;-73
2023/08/19 23:54:55;;;;;;;3.65;0.95;;;;;;;;;;5043949;28;61517;-73
2023/08/19 23:57:20;;;;;;;1.60;1.50;;;;;;;;;;5032441;28;58236;-72
2023/08/19 23:59:45;;;;;;;1.73;1.27;;;;;;;;;;5031026;28;58237;-73
